Map

Track Data

SID SEASON NUMBER BASIN SUBBASIN NAME ISO_TIME NATURE LAT LON WMO_WIND WMO_PRES WMO_AGENCY TRACK_TYPE DIST2LAND LANDFALL IFLAG USA_AGENCY USA_ATCF_ID USA_LAT USA_LON USA_RECORD USA_STATUS USA_WIND USA_PRES USA_SSHS USA_R34_NE USA_R34_SE USA_R34_SW USA_R34_NW USA_R50_NE USA_R50_SE USA_R50_SW USA_R50_NW USA_R64_NE USA_R64_SE USA_R64_SW USA_R64_NW USA_POCI USA_ROCI USA_RMW USA_EYE TOKYO_LAT TOKYO_LON TOKYO_GRADE TOKYO_WIND TOKYO_PRES TOKYO_R50_DIR TOKYO_R50_LONG TOKYO_R50_SHORT TOKYO_R30_DIR TOKYO_R30_LONG TOKYO_R30_SHORT TOKYO_LAND CMA_LAT CMA_LON CMA_CAT CMA_WIND CMA_PRES HKO_LAT HKO_LON HKO_CAT HKO_WIND HKO_PRES NEWDELHI_LAT NEWDELHI_LON NEWDELHI_GRADE NEWDELHI_WIND NEWDELHI_PRES NEWDELHI_CI NEWDELHI_DP NEWDELHI_POCI REUNION_LAT REUNION_LON REUNION_TYPE REUNION_WIND REUNION_PRES REUNION_TNUM REUNION_CI REUNION_RMW REUNION_R34_NE REUNION_R34_SE REUNION_R34_SW REUNION_R34_NW REUNION_R50_NE REUNION_R50_SE REUNION_R50_SW REUNION_R50_NW REUNION_R64_NE REUNION_R64_SE REUNION_R64_SW REUNION_R64_NW BOM_LAT BOM_LON BOM_TYPE BOM_WIND BOM_PRES BOM_TNUM BOM_CI BOM_RMW BOM_R34_NE BOM_R34_SE BOM_R34_SW BOM_R34_NW BOM_R50_NE BOM_R50_SE BOM_R50_SW BOM_R50_NW BOM_R64_NE BOM_R64_SE BOM_R64_SW BOM_R64_NW BOM_ROCI BOM_POCI BOM_EYE BOM_POS_METHOD BOM_PRES_METHOD NADI_LAT NADI_LON NADI_CAT NADI_WIND NADI_PRES WELLINGTON_LAT WELLINGTON_LON WELLINGTON_WIND WELLINGTON_PRES DS824_LAT DS824_LON DS824_STAGE DS824_WIND DS824_PRES TD9636_LAT TD9636_LON TD9636_STAGE TD9636_WIND TD9636_PRES TD9635_LAT TD9635_LON TD9635_WIND TD9635_PRES TD9635_ROCI NEUMANN_LAT NEUMANN_LON NEUMANN_CLASS NEUMANN_WIND NEUMANN_PRES MLC_LAT MLC_LON MLC_CLASS MLC_WIND MLC_PRES USA_GUST BOM_GUST BOM_GUST_PER REUNION_GUST REUNION_GUST_PER USA_SEAHGT USA_SEARAD_NE USA_SEARAD_SE USA_SEARAD_SW USA_SEARAD_NW STORM_SPEED STORM_DIR
1952231N15341 1952 54 NA NA ABLE 1952-08-18 06:00:00 TS 14.6000 -19.0000 25 hurdat_atl main 161 161 O_____________ hurdat_atl AL021952 14.6000 -19.0000 TD 25 -1 6 247
1952231N15341 1952 54 NA NA ABLE 1952-08-18 09:00:00 TS 14.4875 -19.2726 main 195 195 P_____________ AL021952 14.4875 -19.2726 TD 25 -1 6 251
1952231N15341 1952 54 NA NA ABLE 1952-08-18 12:00:00 TS 14.4000 -19.6000 25 hurdat_atl main 228 228 O_____________ hurdat_atl AL021952 14.4000 -19.6000 TD 25 -1 7 259
1952231N15341 1952 54 NA NA ABLE 1952-08-18 15:00:00 TS 14.3500 -20.0199 main 272 272 P_____________ AL021952 14.3500 -20.0199 TD 25 -1 9 263
1952231N15341 1952 54 NA NA ABLE 1952-08-18 18:00:00 TS 14.3000 -20.5000 25 hurdat_atl main 326 326 O_____________ hurdat_atl AL021952 14.3000 -20.5000 TD 25 -1 9 261
1952231N15341 1952 54 NA NA ABLE 1952-08-18 21:00:00 TS 14.2074 -20.9850 main 381 381 P_____________ AL021952 14.2074 -20.9850 TD 25 -1 10 258
1952231N15341 1952 54 NA NA ABLE 1952-08-19 00:00:00 TS 14.1000 -21.5000 25 hurdat_atl main 436 436 O_____________ hurdat_atl AL021952 14.1000 -21.5000 TD 25 -1 10 259
1952231N15341 1952 54 NA NA ABLE 1952-08-19 03:00:00 TS 13.9999 -22.0425 main 491 491 P_____________ AL021952 13.9999 -22.0425 TD 25 -1 11 259
1952231N15341 1952 54 NA NA ABLE 1952-08-19 06:00:00 TS 13.9000 -22.6000 25 hurdat_atl main 557 557 O_____________ hurdat_atl AL021952 13.9000 -22.6000 TD 25 -1 11 260
1952231N15341 1952 54 NA NA ABLE 1952-08-19 09:00:00 TS 13.8072 -23.1274 main 612 612 P_____________ AL021952 13.8072 -23.1274 TD 25 -1 11 259
1952231N15341 1952 54 NA NA ABLE 1952-08-19 12:00:00 TS 13.7000 -23.7000 25 hurdat_atl main 677 677 O_____________ hurdat_atl AL021952 13.7000 -23.7000 TD 25 -1 12 258
1952231N15341 1952 54 NA NA ABLE 1952-08-19 15:00:00 TS 13.5499 -24.3701 main 756 756 P_____________ AL021952 13.5499 -24.3701 TD 25 -1 14 258
1952231N15341 1952 54 NA NA ABLE 1952-08-19 18:00:00 TS 13.4000 -25.1000 25 hurdat_atl main 832 832 O_____________ hurdat_atl AL021952 13.4000 -25.1000 TD 25 -1 15 260
1952231N15341 1952 54 NA NA ABLE 1952-08-19 21:00:00 TS 13.2923 -25.8349 main 909 909 P_____________ AL021952 13.2923 -25.8349 TD 25 -1 15 262
1952231N15341 1952 54 NA NA ABLE 1952-08-20 00:00:00 TS 13.2000 -26.6000 25 hurdat_atl main 996 996 O_____________ hurdat_atl AL021952 13.2000 -26.6000 TD 25 -1 15 263
1952231N15341 1952 54 NA NA ABLE 1952-08-20 03:00:00 TS 13.0998 -27.3925 main 1083 1083 P_____________ AL021952 13.0998 -27.3925 TD 25 -1 16 263
1952231N15341 1952 54 NA NA ABLE 1952-08-20 06:00:00 TS 13.0000 -28.2000 25 hurdat_atl main 1171 1171 O_____________ hurdat_atl AL021952 13.0000 -28.2000 TD 25 -1 16 263
1952231N15341 1952 54 NA NA ABLE 1952-08-20 09:00:00 TS 12.8998 -28.9999 main 1258 1258 P_____________ AL021952 12.8998 -28.9999 TD 25 -1 16 263
1952231N15341 1952 54 NA NA ABLE 1952-08-20 12:00:00 TS 12.8000 -29.8000 25 hurdat_atl main 1345 1345 O_____________ hurdat_atl AL021952 12.8000 -29.8000 TD 25 -1 16 263
1952231N15341 1952 54 NA NA ABLE 1952-08-20 15:00:00 TS 12.6997 -30.5924 main 1433 1433 P_____________ AL021952 12.6997 -30.5924 TD 25 -1 16 263
1952231N15341 1952 54 NA NA ABLE 1952-08-20 18:00:00 TS 12.6000 -31.4000 25 hurdat_atl main 1520 1520 O_____________ hurdat_atl AL021952 12.6000 -31.4000 TD 25 -1 16 263
1952231N15341 1952 54 NA NA ABLE 1952-08-20 21:00:00 TS 12.4923 -32.2425 main 1608 1608 P_____________ AL021952 12.4923 -32.2425 TD 25 -1 17 263
1952231N15341 1952 54 NA NA ABLE 1952-08-21 00:00:00 TS 12.4000 -33.1000 25 hurdat_atl main 1706 1706 O_____________ hurdat_atl AL021952 12.4000 -33.1000 TD 25 -1 17 265
1952231N15341 1952 54 NA NA ABLE 1952-08-21 03:00:00 TS 12.3347 -33.9425 main 1793 1790 P_____________ AL021952 12.3347 -33.9425 TD 25 -1 17 267
1952231N15341 1952 54 NA NA ABLE 1952-08-21 06:00:00 TS 12.3000 -34.8000 25 hurdat_atl main 1790 1765 O_____________ hurdat_atl AL021952 12.3000 -34.8000 TD 25 -1 17 269
1952231N15341 1952 54 NA NA ABLE 1952-08-21 09:00:00 TS 12.2923 -35.6924 main 1762 1741 P_____________ AL021952 12.2923 -35.6924 TD 25 -1 18 270
1952231N15341 1952 54 NA NA ABLE 1952-08-21 12:00:00 TS 12.3000 -36.6000 25 hurdat_atl main 1739 1721 O_____________ hurdat_atl AL021952 12.3000 -36.6000 TD 25 -1 18 270
1952231N15341 1952 54 NA NA ABLE 1952-08-21 15:00:00 TS 12.2998 -37.5075 main 1721 1678 P_____________ AL021952 12.2998 -37.5075 TD 25 -1 18 270
1952231N15341 1952 54 NA NA ABLE 1952-08-21 18:00:00 TS 12.3000 -38.4000 25 hurdat_atl main 1678 1604 O_____________ hurdat_atl AL021952 12.3000 -38.4000 TD 25 -1 17 269
1952231N15341 1952 54 NA NA ABLE 1952-08-21 21:00:00 TS 12.2772 -39.2577 main 1595 1523 P_____________ AL021952 12.2772 -39.2577 TD 25 -1 17 270
1952231N15341 1952 54 NA NA ABLE 1952-08-22 00:00:00 TS 12.3000 -40.1000 25 hurdat_atl main 1523 1460 O_____________ hurdat_atl AL021952 12.3000 -40.1000 TD 25 -1 17 275
1952231N15341 1952 54 NA NA ABLE 1952-08-22 03:00:00 TS 12.4198 -40.9574 main 1451 1398 P_____________ AL021952 12.4198 -40.9574 TD 25 -1 17 280
1952231N15341 1952 54 NA NA ABLE 1952-08-22 06:00:00 TS 12.6000 -41.8000 25 hurdat_atl main 1398 1349 O_____________ hurdat_atl AL021952 12.6000 -41.8000 TD 25 -1 17 283
1952231N15341 1952 54 NA NA ABLE 1952-08-22 09:00:00 TS 12.7847 -42.6076 main 1349 1305 P_____________ AL021952 12.7847 -42.6076 TD 25 -1 16 284
1952231N15341 1952 54 NA NA ABLE 1952-08-22 12:00:00 TS 13.0000 -43.4000 25 hurdat_atl main 1305 1265 O_____________ hurdat_atl AL021952 13.0000 -43.4000 TD 25 -1 16 286
1952231N15341 1952 54 NA NA ABLE 1952-08-22 15:00:00 TS 13.2423 -44.2001 main 1265 1241 P_____________ AL021952 13.2423 -44.2001 TD 25 -1 16 288
1952231N15341 1952 54 NA NA ABLE 1952-08-22 18:00:00 TS 13.5000 -45.0000 25 hurdat_atl main 1241 1209 O_____________ hurdat_atl AL021952 13.5000 -45.0000 TD 25 -1 16 288
1952231N15341 1952 54 NA NA ABLE 1952-08-22 21:00:00 TS 13.7497 -45.8002 main 1209 1184 P_____________ AL021952 13.7497 -45.8002 TD 25 -1 16 288
1952231N15341 1952 54 NA NA ABLE 1952-08-23 00:00:00 TS 14.0000 -46.6000 25 hurdat_atl main 1184 1157 O_____________ hurdat_atl AL021952 14.0000 -46.6000 TD 25 -1 16 288
1952231N15341 1952 54 NA NA ABLE 1952-08-23 03:00:00 TS 14.2497 -47.4002 main 1157 1146 P_____________ AL021952 14.2497 -47.4002 TD 25 -1 16 288
1952231N15341 1952 54 NA NA ABLE 1952-08-23 06:00:00 TS 14.5000 -48.2000 25 hurdat_atl main 1146 1132 O_____________ hurdat_atl AL021952 14.5000 -48.2000 TD 25 -1 16 288
1952231N15341 1952 54 NA NA ABLE 1952-08-23 09:00:00 TS 14.7499 -49.0151 main 1132 1126 P_____________ AL021952 14.7499 -49.0151 TD 25 -1 16 288
1952231N15341 1952 54 NA NA ABLE 1952-08-23 12:00:00 TS 15.0000 -49.8000 25 hurdat_atl main 1126 1117 O_____________ hurdat_atl AL021952 15.0000 -49.8000 TD 25 -1 15 289
1952231N15341 1952 54 NA NA ABLE 1952-08-23 15:00:00 TS 15.2498 -50.5301 main 1117 1116 P_____________ AL021952 15.2498 -50.5301 TD 25 -1 14 290
1952231N15341 1952 54 NA NA ABLE 1952-08-23 18:00:00 TS 15.5000 -51.2000 25 hurdat_atl main 1123 1120 O_____________ hurdat_atl AL021952 15.5000 -51.2000 TD 25 -1 13 292
1952231N15341 1952 54 NA NA ABLE 1952-08-23 21:00:00 TS 15.7497 -51.8152 main 1128 1103 P_____________ AL021952 15.7497 -51.8152 TD 25 -1 13 293
1952231N15341 1952 54 NA NA ABLE 1952-08-24 00:00:00 TS 16.0000 -52.4000 25 hurdat_atl main 1103 1061 O_____________ hurdat_atl AL021952 16.0000 -52.4000 TD 25 -1 12 294
1952231N15341 1952 54 NA NA ABLE 1952-08-24 03:00:00 TS 16.2498 -53.0001 main 1061 1030 P_____________ AL021952 16.2498 -53.0001 TD 25 -1 13 293
1952231N15341 1952 54 NA NA ABLE 1952-08-24 06:00:00 TS 16.5000 -53.6000 25 hurdat_atl main 1030 995 O_____________ hurdat_atl AL021952 16.5000 -53.6000 TD 25 -1 13 293
1952231N15341 1952 54 NA NA ABLE 1952-08-24 09:00:00 TS 16.7499 -54.2151 main 995 971 P_____________ AL021952 16.7499 -54.2151 TD 27 -1 13 294
1952231N15341 1952 54 NA NA ABLE 1952-08-24 12:00:00 TS 17.0000 -54.8000 30 hurdat_atl main 972 952 O_____________ hurdat_atl AL021952 17.0000 -54.8000 TD 30 -1 12 295
1952231N15341 1952 54 NA NA ABLE 1952-08-24 15:00:00 TS 17.2498 -55.3227 main 952 943 P_____________ AL021952 17.2498 -55.3227 TD 32 -1 11 298
1952231N15341 1952 54 NA NA ABLE 1952-08-24 18:00:00 TS 17.5000 -55.8000 35 hurdat_atl main 945 935 O_____________ hurdat_atl AL021952 17.5000 -55.8000 TS 35 0 10 299
1952231N15341 1952 54 NA NA ABLE 1952-08-24 21:00:00 TS 17.7423 -56.2577 main 933 933 P_____________ AL021952 17.7423 -56.2577 TS 35 0 10 300
1952231N15341 1952 54 NA NA ABLE 1952-08-25 00:00:00 TS 18.0000 -56.7000 35 hurdat_atl main 939 897 O_____________ hurdat_atl AL021952 18.0000 -56.7000 TS 35 0 10 302
1952231N15341 1952 54 NA NA ABLE 1952-08-25 03:00:00 TS 18.2849 -57.1576 main 886 843 P_____________ AL021952 18.2849 -57.1576 TS 35 0 10 305
1952231N15341 1952 54 NA NA ABLE 1952-08-25 06:00:00 TS 18.6000 -57.6000 35 hurdat_atl main 843 802 O_____________ hurdat_atl AL021952 18.6000 -57.6000 TS 35 0 11 310
1952231N15341 1952 54 NA NA ABLE 1952-08-25 09:00:00 TS 18.9574 -58.0150 main 803 764 P_____________ AL021952 18.9574 -58.0150 TS 35 0 10 313
1952231N15341 1952 54 NA NA ABLE 1952-08-25 12:00:00 TS 19.3000 -58.4000 35 hurdat_atl main 764 735 O_____________ hurdat_atl AL021952 19.3000 -58.4000 TS 35 0 9 312
1952231N15341 1952 54 NA NA ABLE 1952-08-25 15:00:00 TS 19.5873 -58.7501 main 727 700 P_____________ AL021952 19.5873 -58.7501 TS 37 0 8 307
1952231N15341 1952 54 NA NA ABLE 1952-08-25 18:00:00 TS 19.8000 -59.1000 40 hurdat_atl main 700 662 O_____________ hurdat_atl AL021952 19.8000 -59.1000 TS 40 0 8 295
1952231N15341 1952 54 NA NA ABLE 1952-08-25 21:00:00 TS 19.9149 -59.4853 main 662 624 P_____________ AL021952 19.9149 -59.4853 TS 40 0 8 285
1952231N15341 1952 54 NA NA ABLE 1952-08-26 00:00:00 TS 20.0000 -59.9000 40 hurdat_atl main 624 587 O_____________ hurdat_atl AL021952 20.0000 -59.9000 TS 40 0 8 285
1952231N15341 1952 54 NA NA ABLE 1952-08-26 03:00:00 TS 20.1349 -60.3426 main 587 546 P_____________ AL021952 20.1349 -60.3426 TS 42 0 9 290
1952231N15341 1952 54 NA NA ABLE 1952-08-26 06:00:00 TS 20.3000 -60.8000 45 hurdat_atl main 546 512 O_____________ hurdat_atl AL021952 20.3000 -60.8000 TS 45 0 9 292
1952231N15341 1952 54 NA NA ABLE 1952-08-26 09:00:00 TS 20.4925 -61.2650 main 508 482 P_____________ AL021952 20.4925 -61.2650 TS 45 0 9 295
1952231N15341 1952 54 NA NA ABLE 1952-08-26 12:00:00 TS 20.7000 -61.7000 45 hurdat_atl main 482 469 O_____________ hurdat_atl AL021952 20.7000 -61.7000 TS 45 0 9 299
1952231N15341 1952 54 NA NA ABLE 1952-08-26 15:00:00 TS 20.9073 -62.0651 main 460 450 P_____________ AL021952 20.9073 -62.0651 TS 47 0 8 301
1952231N15341 1952 54 NA NA ABLE 1952-08-26 18:00:00 TS 21.1000 -62.4000 50 hurdat_atl main 450 436 O_____________ hurdat_atl AL021952 21.1000 -62.4000 TS 50 0 7 299
1952231N15341 1952 54 NA NA ABLE 1952-08-26 21:00:00 TS 21.2574 -62.7501 main 436 423 P_____________ AL021952 21.2574 -62.7501 TS 50 0 7 295
1952231N15341 1952 54 NA NA ABLE 1952-08-27 00:00:00 TS 21.4000 -63.1000 50 hurdat_atl main 425 416 O_____________ hurdat_atl AL021952 21.4000 -63.1000 TS 50 0 7 295
1952231N15341 1952 54 NA NA ABLE 1952-08-27 03:00:00 TS 21.5574 -63.4425 main 425 409 P_____________ AL021952 21.5574 -63.4425 TS 52 0 7 295
1952231N15341 1952 54 NA NA ABLE 1952-08-27 06:00:00 TS 21.7000 -63.8000 55 hurdat_atl main 414 405 O_____________ hurdat_atl AL021952 21.7000 -63.8000 TS 55 0 7 290
1952231N15341 1952 54 NA NA ABLE 1952-08-27 09:00:00 TS 21.7998 -64.1777 main 407 400 P_____________ AL021952 21.7998 -64.1777 TS 55 0 8 285
1952231N15341 1952 54 NA NA ABLE 1952-08-27 12:00:00 TS 21.9000 -64.6000 55 1003 hurdat_atl main 405 400 O_____________ hurdat_atl AL021952 21.9000 -64.6000 TS 55 1003 0 9 285
1952231N15341 1952 54 NA NA ABLE 1952-08-27 15:00:00 TS 22.0274 -65.0777 main 406 406 P_____________ AL021952 22.0274 -65.0777 TS 57 1000 0 10 288
1952231N15341 1952 54 NA NA ABLE 1952-08-27 18:00:00 TS 22.2000 -65.6000 60 998 hurdat_atl main 424 424 O_____________ hurdat_atl AL021952 22.2000 -65.6000 TS 60 998 0 10 292
1952231N15341 1952 54 NA NA ABLE 1952-08-27 21:00:00 TS 22.4197 -66.1278 main 447 447 P_____________ AL021952 22.4197 -66.1278 TS 60 0 11 296
1952231N15341 1952 54 NA NA ABLE 1952-08-28 00:00:00 TS 22.7000 -66.7000 60 hurdat_atl main 466 457 O_____________ hurdat_atl AL021952 22.7000 -66.7000 TS 60 0 13 299
1952231N15341 1952 54 NA NA ABLE 1952-08-28 03:00:00 TS 23.0274 -67.3352 main 462 458 P_____________ AL021952 23.0274 -67.3352 TS 57 0 14 300
1952231N15341 1952 54 NA NA ABLE 1952-08-28 06:00:00 TS 23.4000 -68.0000 55 hurdat_atl main 472 468 O_____________ hurdat_atl AL021952 23.4000 -68.0000 TS 55 0 14 302
1952231N15341 1952 54 NA NA ABLE 1952-08-28 09:00:00 TS 23.7847 -68.6504 main 488 488 P_____________ AL021952 23.7847 -68.6504 TS 55 0 14 304
1952231N15341 1952 54 NA NA ABLE 1952-08-28 12:00:00 TS 24.2000 -69.3000 55 1002 hurdat_atl main 506 492 O_____________ hurdat_atl AL021952 24.2000 -69.3000 TS 55 1002 0 15 306
1952231N15341 1952 54 NA NA ABLE 1952-08-28 15:00:00 TS 24.6497 -69.9502 main 488 488 P_____________ AL021952 24.6497 -69.9502 TS 52 1002 0 15 307
1952231N15341 1952 54 NA NA ABLE 1952-08-28 18:00:00 TS 25.1000 -70.6000 50 1003 hurdat_atl main 500 495 O_____________ hurdat_atl AL021952 25.1000 -70.6000 TS 50 1003 0 14 306
1952231N15341 1952 54 NA NA ABLE 1952-08-28 21:00:00 TS 25.5070 -71.2357 main 514 510 P_____________ AL021952 25.5070 -71.2357 TS 50 0 14 304
1952231N15341 1952 54 NA NA ABLE 1952-08-29 00:00:00 TS 25.9000 -71.9000 50 hurdat_atl main 537 535 O_____________ hurdat_atl AL021952 25.9000 -71.9000 TS 50 0 15 302
1952231N15341 1952 54 NA NA ABLE 1952-08-29 03:00:00 TS 26.3073 -72.6352 main 549 492 P_____________ AL021952 26.3073 -72.6352 TS 52 0 16 301
1952231N15341 1952 54 NA NA ABLE 1952-08-29 06:00:00 TS 26.7000 -73.4000 55 hurdat_atl main 492 443 O_____________ hurdat_atl AL021952 26.7000 -73.4000 TS 55 0 16 299
1952231N15341 1952 54 NA NA ABLE 1952-08-29 09:00:00 TS 27.0722 -74.1577 main 440 401 P_____________ AL021952 27.0722 -74.1577 TS 57 0 15 298
1952231N15341 1952 54 NA NA ABLE 1952-08-29 12:00:00 TS 27.4000 -74.9000 60 999 hurdat_atl main 401 367 O_____________ hurdat_atl AL021952 27.4000 -74.9000 TS 60 999 0 14 294
1952231N15341 1952 54 NA NA ABLE 1952-08-29 15:00:00 TS 27.6570 -75.6083 main 375 355 P_____________ AL021952 27.6570 -75.6083 TS 62 0 13 292
1952231N15341 1952 54 NA NA ABLE 1952-08-29 18:00:00 TS 27.9000 -76.3000 65 hurdat_atl main 355 333 O_____________ hurdat_atl AL021952 27.9000 -76.3000 HU 65 1 14 293
1952231N15341 1952 54 NA NA ABLE 1952-08-29 21:00:00 TS 28.1925 -77.0225 main 333 273 P_____________ AL021952 28.1925 -77.0225 HU 65 1 14 296
1952231N15341 1952 54 NA NA ABLE 1952-08-30 00:00:00 TS 28.5000 -77.7000 65 hurdat_atl main 273 217 O_____________ hurdat_atl AL021952 28.5000 -77.7000 HU 65 1 13 298
1952231N15341 1952 54 NA NA ABLE 1952-08-30 03:00:00 TS 28.7923 -78.3028 main 217 178 P_____________ AL021952 28.7923 -78.3028 HU 67 1 11 302
1952231N15341 1952 54 NA NA ABLE 1952-08-30 06:00:00 TS 29.1000 -78.8000 70 hurdat_atl main 178 161 O_____________ hurdat_atl AL021952 29.1000 -78.8000 HU 70 1 10 309
1952231N15341 1952 54 NA NA ABLE 1952-08-30 09:00:00 TS 29.4273 -79.2028 main 161 151 P_____________ AL021952 29.4273 -79.2028 HU 70 1 9 319
1952231N15341 1952 54 NA NA ABLE 1952-08-30 12:00:00 TS 29.8000 -79.5000 70 992 hurdat_atl main 156 154 O_____________ hurdat_atl AL021952 29.8000 -79.5000 HU 70 992 1 9 331
1952231N15341 1952 54 NA NA ABLE 1952-08-30 15:00:00 TS 30.2273 -79.7155 main 159 143 P_____________ AL021952 30.2273 -79.7155 HU 75 987 1 10 339
1952231N15341 1952 54 NA NA ABLE 1952-08-30 18:00:00 TS 30.7000 -79.9000 80 983 hurdat_atl main 143 116 O_____________ hurdat_atl AL021952 30.7000 -79.9000 HU 80 983 1 10 338
1952231N15341 1952 54 NA NA ABLE 1952-08-30 21:00:00 TS 31.1728 -80.1535 main 102 52 P_____________ AL021952 31.1728 -80.1535 HU 82 1 11 337
1952231N15341 1952 54 NA NA ABLE 1952-08-31 00:00:00 TS 31.7000 -80.4000 85 hurdat_atl main 52 0 O_____________ hurdat_atl AL021952 31.7000 -80.4000 HU 85 2 12 341
1952231N15341 1952 54 NA NA ABLE 1952-08-31 03:00:00 TS 32.3000 -80.6000 85 hurdat_atl main 0 0 O_____________ hurdat_atl AL021952 32.3000 -80.6000 L HU 85 2 13 344
1952231N15341 1952 54 NA NA ABLE 1952-08-31 06:00:00 TS 32.9000 -80.8000 65 hurdat_atl main 0 0 O_____________ hurdat_atl AL021952 32.9000 -80.8000 HU 65 1 13 348
1952231N15341 1952 54 NA NA ABLE 1952-08-31 09:00:00 TS 33.5465 -80.9078 main 0 0 P_____________ AL021952 33.5465 -80.9078 HU 55 0 13 356
1952231N15341 1952 54 NA NA ABLE 1952-08-31 12:00:00 TS 34.2000 -80.9000 45 hurdat_atl main 0 0 O_____________ hurdat_atl AL021952 34.2000 -80.9000 TS 45 0 13 4
1952231N15341 1952 54 NA NA ABLE 1952-08-31 15:00:00 TS 34.8074 -80.8098 main 0 0 P_____________ AL021952 34.8074 -80.8098 TS 42 0 12 12
1952231N15341 1952 54 NA NA ABLE 1952-08-31 18:00:00 TS 35.4000 -80.6000 40 hurdat_atl main 0 0 O_____________ hurdat_atl AL021952 35.4000 -80.6000 TS 40 0 12 19
1952231N15341 1952 54 NA NA ABLE 1952-08-31 21:00:00 TS 35.9771 -80.3236 main 0 0 P_____________ AL021952 35.9771 -80.3236 TS 40 0 13 25
1952231N15341 1952 54 NA NA ABLE 1952-09-01 00:00:00 TS 36.6000 -79.9000 40 hurdat_atl main 0 0 O_____________ hurdat_atl AL021952 36.6000 -79.9000 TS 40 0 16 31
1952231N15341 1952 54 NA NA ABLE 1952-09-01 03:00:00 TS 37.3350 -79.3101 main 0 0 P_____________ AL021952 37.3350 -79.3101 TS 42 0 18 35
1952231N15341 1952 54 NA NA ABLE 1952-09-01 06:00:00 TS 38.1000 -78.6000 45 hurdat_atl main 0 0 O_____________ hurdat_atl AL021952 38.1000 -78.6000 TS 45 0 18 37
1952231N15341 1952 54 NA NA ABLE 1952-09-01 09:00:00 TS 38.8138 -77.9077 main 0 0 P_____________ AL021952 38.8138 -77.9077 TS 47 0 18 40
1952231N15341 1952 54 NA NA ABLE 1952-09-01 12:00:00 TS 39.5000 -77.1000 50 hurdat_atl main 0 0 O_____________ hurdat_atl AL021952 39.5000 -77.1000 TS 50 0 19 46
1952231N15341 1952 54 NA NA ABLE 1952-09-01 15:00:00 TS 40.1502 -76.0936 main 0 0 P_____________ AL021952 40.1502 -76.0936 TS 50 0 21 51
1952231N15341 1952 54 NA NA ABLE 1952-09-01 18:00:00 TS 40.8000 -75.0000 50 hurdat_atl main 0 0 O_____________ hurdat_atl AL021952 40.8000 -75.0000 TS 50 0 22 50
1952231N15341 1952 54 NA NA ABLE 1952-09-01 21:00:00 TS 41.5377 -73.8991 main 0 0 P_____________ AL021952 41.5377 -73.8991 TS 47 0 21 48
1952231N15341 1952 54 NA NA ABLE 1952-09-02 00:00:00 TS 42.2000 -72.9000 45 hurdat_atl main 0 0 O_____________ hurdat_atl AL021952 42.2000 -72.9000 TS 45 0 17 50
1952231N15341 1952 54 NA NA ABLE 1952-09-02 03:00:00 TS 42.6357 -72.1508 main 0 0 P_____________ AL021952 42.6357 -72.1508 TS 37 0 13 52
1952231N15341 1952 54 NA NA ABLE 1952-09-02 06:00:00 TS 43.0000 -71.5000 30 hurdat_atl main 0 0 O_____________ hurdat_atl AL021952 43.0000 -71.5000 TD 30 -1 13 53
1952231N15341 1952 54 NA NA ABLE 1952-09-02 09:00:00 TS 43.3892 -70.7765 main 0 0 P_____________ AL021952 43.3892 -70.7765 TD 27 -1 14 50
1952231N15341 1952 54 NA NA ABLE 1952-09-02 12:00:00 TS 43.9000 -70.0000 25 hurdat_atl main 0 0 O_____________ hurdat_atl AL021952 43.9000 -70.0000 TD 25 -1 17 43
1952231N15341 1952 54 NA NA ABLE 1952-09-02 15:00:00 TS 44.6387 -69.1655 main 0 0 P_____________ AL021952 44.6387 -69.1655 TD 25 -1 20 39
1952231N15341 1952 54 NA NA ABLE 1952-09-02 18:00:00 TS 45.5000 -68.2000 25 hurdat_atl main 0 0 O_____________ hurdat_atl AL021952 45.5000 -68.2000 TD 25 -1 23 41
1952231N15341 1952 54 NA NA ABLE 1952-09-02 21:00:00 TS 46.3728 -67.0385 main 0 0 P_____________ AL021952 46.3728 -67.0385 TD 25 -1 24 44
1952231N15341 1952 54 NA NA ABLE 1952-09-03 00:00:00 TS 47.2000 -65.8000 25 hurdat_atl main 0 0 O_____________ hurdat_atl AL021952 47.2000 -65.8000 TD 25 -1 22 47
1952231N15341 1952 54 NA NA ABLE 1952-09-03 03:00:00 TS 47.8937 -64.6275 main 23 23 P_____________ AL021952 47.8937 -64.6275 TD 22 -1 20 50
1952231N15341 1952 54 NA NA ABLE 1952-09-03 06:00:00 TS 48.5000 -63.5000 20 hurdat_atl main 51 O_____________ hurdat_atl AL021952 48.5000 -63.5000 TD 20 -1 19 51

About IBTrACS Database

This database is a web-friendly format of International Best Track Archive for Climate Stewardship (IBTrACS), a global best track data archive curated by NOAA dating back to 1842.

Updated: 2021-10-08